This is the latest recevied weather packets stored in our database for station/object KD8UTJ. If no packets are shown the sender has not sent any weather packets the latest 10 day(s).
| Time | Temp. | Humidity | Pressure | Rain* | Wind** | Luminosity | Snow |
|---|---|---|---|---|---|---|---|
| 1777648317 | 29.44° C | 68% | 1014.3 hPa | 0 mm | - | 683 W/m² | - |
| 1777648014 | 27.78° C | 71% | 1014.3 hPa | 0 mm | - | 660 W/m² | - |
| 1777647710 | 27.78° C | 70% | 1014.4 hPa | 0 mm | - | 660 W/m² | - |
| 1777647406 | 28.33° C | 69% | 1014.5 hPa | 0 mm | - | 649 W/m² | - |
| 1777647104 | 27.78° C | 70% | 1014.4 hPa | 0 mm | - | 631 W/m² | - |
| 1777646192 | 27.78° C | 72% | 1014.4 hPa | 0 mm | - | 576 W/m² | - |
| 1777645890 | 28.33° C | 71% | 1014.6 hPa | 0 mm | - | 577 W/m² | - |
| 1777645586 | 28.33° C | 72% | 1014.3 hPa | 0 mm | - | 568 W/m² | - |
| 1777645282 | 27.78° C | 74% | 1014.6 hPa | 0 mm | - | 553 W/m² | - |
| 1777644978 | 27.22° C | 77% | 1014.4 hPa | 0 mm | - | 544 W/m² | - |
| 1777644677 | 26.11° C | 79% | 1014.3 hPa | 0 mm | - | 528 W/m² | - |
| 1777644372 | 26.11° C | 80% | 1014.2 hPa | 0 mm | - | 506 W/m² | - |
| 1777644069 | 26.67° C | 80% | 1014.3 hPa | 0 mm | - | 501 W/m² | - |
| 1777643765 | 26.67° C | 78% | 1014.6 hPa | 0 mm | - | 484 W/m² | - |
| 1777643160 | 26.67° C | 78% | 1014.4 hPa | 0 mm | - | 456 W/m² | - |
| 1777642856 | 26.67° C | 80% | 1014.6 hPa | 0 mm | - | 440 W/m² | - |
| 1777642553 | 25.56° C | 82% | 1014.5 hPa | 0 mm | - | 429 W/m² | - |
| 1777642249 | 26.11° C | 82% | 1014.4 hPa | 0 mm | - | 432 W/m² | - |
| 1777641947 | 25.56° C | 82% | 1014.5 hPa | 0 mm | - | 399 W/m² | - |
| 1777641642 | 25.56° C | 84% | 1014.5 hPa | 0 mm | - | 379 W/m² | - |
| 1777641337 | 25° C | 85% | 1014.6 hPa | 0 mm | - | 371 W/m² | - |
| 1777641033 | 25° C | 87% | 1014.6 hPa | 0 mm | - | 363 W/m² | - |
| 1777640730 | 24.44° C | 89% | 1014.4 hPa | 0 mm | - | 261 W/m² | - |
| 1777640124 | 23.89° C | 90% | 1014.5 hPa | 0 mm | - | 170 W/m² | - |
| 1777638911 | 23.33° C | 92% | 1014.4 hPa | 0 mm | - | 192 W/m² | - |
* Rain latest hour (hover to see other rain measurements)
** Current wind speed in m/s (hover to see current wind gust speed)